createdAt,value
2023-05-06T00:03:47.043Z,10.00
2023-05-06T00:06:16.549Z,12.50
2023-05-06T00:08:47.966Z,9.60
2023-05-06T00:11:18.670Z,12.40
2023-05-06T00:13:49.205Z,12.20
2023-05-06T00:16:18.675Z,12.70
2023-05-06T00:18:48.201Z,10.20
2023-05-06T00:21:17.536Z,12.60
2023-05-06T00:23:45.743Z,12.40
2023-05-06T00:26:15.111Z,11.20
2023-05-06T00:28:45.711Z,11.80
2023-05-06T00:31:16.298Z,11.20
2023-05-06T00:33:45.150Z,12.30
2023-05-06T00:36:13.322Z,10.80
2023-05-06T00:38:41.451Z,10.10
2023-05-06T00:43:41.042Z,11.70
2023-05-06T00:46:11.907Z,9.50
2023-05-06T00:48:42.540Z,12.10
2023-05-06T00:51:12.526Z,9.40
2023-05-06T00:53:43.773Z,12.10
2023-05-06T00:56:13.384Z,10.10
2023-05-06T00:58:43.465Z,11.30
2023-05-06T01:01:13.307Z,10.00
2023-05-06T01:03:42.773Z,12.10
2023-05-06T01:06:21.355Z,11.20
2023-05-06T01:08:58.968Z,9.80
2023-05-06T01:11:40.860Z,9.70
2023-05-06T01:14:18.815Z,11.30
2023-05-06T01:16:54.712Z,10.40
2023-05-06T01:19:41.749Z,9.80
2023-05-06T01:22:12.584Z,8.90
2023-05-06T01:24:43.773Z,10.90
2023-05-06T01:27:13.772Z,10.30
2023-05-06T01:29:46.114Z,9.00
2023-05-06T01:32:35.984Z,11.60
2023-05-06T01:35:19.343Z,9.00
2023-05-06T01:37:57.031Z,11.50
2023-05-06T01:40:31.783Z,10.80
2023-05-06T01:43:03.094Z,11.70
2023-05-06T01:45:36.085Z,10.40
2023-05-06T01:48:06.752Z,10.50
2023-05-06T01:50:38.148Z,11.30
2023-05-06T01:53:06.329Z,12.50
2023-05-06T01:55:38.205Z,9.70
2023-05-06T01:58:06.523Z,9.80
2023-05-06T02:00:36.266Z,11.70
2023-05-06T02:03:08.188Z,11.80
2023-05-06T02:08:06.018Z,10.60
2023-05-06T02:10:36.883Z,9.60
2023-05-06T02:13:10.096Z,13.30
2023-05-06T02:18:12.868Z,11.50
2023-05-06T02:20:40.956Z,9.50
2023-05-06T02:23:16.197Z,9.90
2023-05-06T02:25:46.482Z,9.50
2023-05-06T02:28:15.810Z,11.90
2023-05-06T02:30:45.252Z,12.00
2023-05-06T02:33:13.453Z,12.10
2023-05-06T02:35:44.075Z,11.50
2023-05-06T02:38:13.558Z,9.40
2023-05-06T02:40:42.903Z,11.90
2023-05-06T02:43:12.580Z,9.30
2023-05-06T02:45:42.011Z,9.50
2023-05-06T02:48:10.268Z,11.90
2023-05-06T02:50:39.585Z,10.50
2023-05-06T02:53:08.877Z,10.40
2023-05-06T02:55:38.346Z,10.40
2023-05-06T02:58:07.670Z,10.80
2023-05-06T03:00:39.519Z,10.50
2023-05-06T03:03:08.904Z,11.50
2023-05-06T03:05:38.257Z,11.10
2023-05-06T03:08:08.892Z,11.40
2023-05-06T03:10:38.873Z,10.30
2023-05-06T03:13:08.338Z,10.60
2023-05-06T03:15:39.409Z,11.60
2023-05-06T03:18:10.351Z,9.50
2023-05-06T03:20:39.834Z,11.20
2023-05-06T03:23:09.141Z,9.70
2023-05-06T03:25:38.704Z,11.60
2023-05-06T03:30:41.369Z,11.60
2023-05-06T03:33:11.218Z,9.70
2023-05-06T03:35:40.974Z,10.40
2023-05-06T03:38:11.612Z,9.20
2023-05-06T03:40:52.454Z,11.50
2023-05-06T03:43:21.971Z,9.30
2023-05-06T03:45:55.495Z,11.60
2023-05-06T03:48:25.794Z,11.10
2023-05-06T03:50:54.744Z,9.60
2023-05-06T03:53:24.179Z,10.70
2023-05-06T03:55:53.439Z,10.30
2023-05-06T03:58:21.776Z,10.50
2023-05-06T04:00:53.705Z,11.80
2023-05-06T04:03:24.646Z,11.40
2023-05-06T04:05:53.574Z,9.50
2023-05-06T04:08:26.660Z,11.60
2023-05-06T04:10:57.051Z,11.10
2023-05-06T04:13:30.430Z,11.80
2023-05-06T04:16:01.333Z,10.40
2023-05-06T04:18:38.928Z,11.20
2023-05-06T04:21:12.091Z,11.20
2023-05-06T04:23:44.295Z,11.50
2023-05-06T04:26:17.242Z,10.50
2023-05-06T04:28:48.105Z,9.10
2023-05-06T04:31:17.908Z,10.30
2023-05-06T04:33:54.597Z,9.70
2023-05-06T04:36:27.979Z,11.60
2023-05-06T04:39:24.705Z,10.70
2023-05-06T04:41:54.403Z,9.00
2023-05-06T04:44:30.850Z,9.40
2023-05-06T04:49:32.142Z,11.90
2023-05-06T04:52:03.440Z,10.40
2023-05-06T04:54:34.185Z,10.80
2023-05-06T04:57:05.435Z,9.30
2023-05-06T04:59:34.761Z,11.80
2023-05-06T05:02:05.829Z,9.20
2023-05-06T05:04:35.362Z,9.50
2023-05-06T05:07:03.525Z,9.80
2023-05-06T05:12:03.794Z,10.70
2023-05-06T05:14:37.832Z,11.80
2023-05-06T05:19:38.139Z,12.10
2023-05-06T05:22:08.110Z,10.80
2023-05-06T05:24:36.316Z,11.20
2023-05-06T05:27:04.480Z,11.50
2023-05-06T05:29:33.858Z,11.60
2023-05-06T05:32:06.714Z,10.40
2023-05-06T05:34:36.836Z,12.10
2023-05-06T05:37:07.586Z,9.70
2023-05-06T05:39:35.933Z,9.70
2023-05-06T05:42:04.132Z,11.70
2023-05-06T05:47:05.854Z,12.10
2023-05-06T05:49:37.208Z,10.10
2023-05-06T05:52:08.699Z,12.40
2023-05-06T05:54:38.698Z,10.20
2023-05-06T05:57:08.485Z,10.20
2023-05-06T05:59:38.540Z,10.20
2023-05-06T06:02:08.796Z,12.70
2023-05-06T06:04:38.623Z,11.40
2023-05-06T06:07:08.164Z,10.20
2023-05-06T06:09:41.874Z,9.20
2023-05-06T06:12:11.409Z,11.20
2023-05-06T06:14:41.515Z,12.60
2023-05-06T06:17:11.012Z,10.30
2023-05-06T06:19:42.023Z,11.50
2023-05-06T06:22:10.379Z,11.40
2023-05-06T06:24:42.567Z,12.40
2023-05-06T06:27:10.964Z,13.00
2023-05-06T06:29:40.463Z,10.70
2023-05-06T06:34:40.805Z,11.60
2023-05-06T06:37:12.323Z,13.00
2023-05-06T06:39:43.424Z,11.10
2023-05-06T06:42:12.950Z,12.00
2023-05-06T06:44:50.643Z,11.30
2023-05-06T06:47:19.959Z,12.10
2023-05-06T06:49:50.660Z,12.80
2023-05-06T06:52:19.127Z,12.40
2023-05-06T06:54:47.341Z,12.30
2023-05-06T06:57:16.693Z,12.60
2023-05-06T06:59:44.786Z,11.30
2023-05-06T07:04:42.533Z,12.50
2023-05-06T07:07:12.094Z,13.70
2023-05-06T07:09:40.630Z,12.70
2023-05-06T07:12:10.003Z,12.30
2023-05-06T07:17:10.311Z,12.80
2023-05-06T07:19:39.645Z,12.10
2023-05-06T07:22:10.144Z,12.10
2023-05-06T07:24:40.802Z,12.30
2023-05-06T07:27:10.139Z,14.90
2023-05-06T07:29:39.693Z,12.60
2023-05-06T07:34:38.001Z,13.80
2023-05-06T07:37:08.003Z,14.70
2023-05-06T07:39:39.956Z,13.20
2023-05-06T07:42:12.939Z,15.20
2023-05-06T07:44:42.366Z,15.00
2023-05-06T07:47:11.824Z,13.10
2023-05-06T07:49:41.103Z,14.10
2023-05-06T07:52:10.453Z,14.30
2023-05-06T07:54:39.968Z,15.20
2023-05-06T08:02:10.120Z,12.70
2023-05-06T08:04:39.569Z,12.70
2023-05-06T08:07:08.926Z,13.40
2023-05-06T08:09:37.132Z,13.80
2023-05-06T08:12:08.506Z,13.10
2023-05-06T08:14:37.914Z,14.00
2023-05-06T08:17:07.200Z,14.20
2023-05-06T08:19:36.505Z,14.30
2023-05-06T08:22:05.825Z,15.90
2023-05-06T08:24:34.005Z,15.90
2023-05-06T08:27:02.228Z,16.60
2023-05-06T08:29:31.674Z,15.20
2023-05-06T08:32:03.186Z,15.50
2023-05-06T08:34:36.089Z,16.70
2023-05-06T08:39:35.199Z,16.70
2023-05-06T08:42:05.896Z,16.10
2023-05-06T08:44:38.771Z,18.10
2023-05-06T08:47:08.641Z,17.70
2023-05-06T08:49:40.939Z,18.40
2023-05-06T08:52:10.857Z,16.50
2023-05-06T08:54:41.930Z,20.00
2023-05-06T08:57:13.904Z,17.80
2023-05-06T08:59:46.436Z,18.60
2023-05-06T09:02:15.110Z,20.70
2023-05-06T09:04:45.609Z,19.80
2023-05-06T09:07:16.215Z,20.30
2023-05-06T09:09:45.796Z,20.80
2023-05-06T09:12:14.943Z,21.10
2023-05-06T09:14:46.596Z,21.10
2023-05-06T09:17:24.126Z,21.30
2023-05-06T09:19:53.727Z,21.60
2023-05-06T09:22:24.830Z,21.70
2023-05-06T09:24:56.855Z,21.70
2023-05-06T09:27:26.543Z,22.00
2023-05-06T09:30:07.214Z,22.10
2023-05-06T09:32:39.848Z,22.30
2023-05-06T09:35:12.916Z,21.50
2023-05-06T09:37:43.105Z,22.70
2023-05-06T09:40:15.203Z,21.40
2023-05-06T09:42:45.886Z,23.20
2023-05-06T09:45:18.031Z,21.30
2023-05-06T09:47:49.708Z,22.00
2023-05-06T09:50:22.299Z,22.50
2023-05-06T09:52:51.912Z,21.50
2023-05-06T09:55:23.501Z,22.90
2023-05-06T09:57:52.025Z,22.40
2023-05-06T10:00:28.308Z,23.40
2023-05-06T10:03:01.081Z,23.80
2023-05-06T10:05:31.892Z,23.50
2023-05-06T10:08:01.663Z,24.10
2023-05-06T10:10:31.981Z,24.50
2023-05-06T10:13:04.713Z,25.50
2023-05-06T10:15:35.399Z,24.40
2023-05-06T10:18:05.773Z,24.70
2023-05-06T10:20:37.202Z,25.90
2023-05-06T10:23:21.990Z,24.70
2023-05-06T10:25:55.123Z,24.60
2023-05-06T10:28:31.087Z,24.30
2023-05-06T10:31:03.391Z,25.40
2023-05-06T10:33:33.498Z,25.60
2023-05-06T10:36:17.705Z,25.70
2023-05-06T10:38:52.370Z,25.90
2023-05-06T10:41:23.427Z,26.10
2023-05-06T10:43:56.712Z,26.40
2023-05-06T10:46:29.905Z,28.30
2023-05-06T10:49:25.232Z,27.20
2023-05-06T10:52:21.196Z,27.10
2023-05-06T10:54:52.649Z,27.70
2023-05-06T10:57:26.517Z,26.60
2023-05-06T10:59:56.548Z,26.60
2023-05-06T11:02:26.408Z,26.70
2023-05-06T11:05:03.131Z,26.50
2023-05-06T11:07:32.071Z,26.30
2023-05-06T11:10:06.442Z,26.30
2023-05-06T11:12:50.785Z,26.50
2023-05-06T11:15:42.173Z,26.50
2023-05-06T11:18:46.363Z,27.00
2023-05-06T11:21:40.855Z,26.60
2023-05-06T11:24:14.114Z,26.90
2023-05-06T11:26:44.683Z,26.80
2023-05-06T11:29:17.834Z,26.90
2023-05-06T11:31:49.184Z,26.90
2023-05-06T11:34:27.929Z,27.00
2023-05-06T11:37:06.596Z,26.70
2023-05-06T11:39:40.776Z,27.30
2023-05-06T11:42:11.990Z,27.50
2023-05-06T11:44:41.052Z,27.50
2023-05-06T11:47:11.517Z,27.30
2023-05-06T11:49:44.109Z,27.70
2023-05-06T11:52:14.349Z,27.00
2023-05-06T11:54:44.185Z,27.40
2023-05-06T11:57:15.771Z,28.90
2023-05-06T11:59:45.227Z,28.20
2023-05-06T12:02:17.618Z,28.80
2023-05-06T12:04:50.292Z,29.90
2023-05-06T12:07:19.001Z,28.80
2023-05-06T12:09:50.639Z,28.70
2023-05-06T12:12:23.260Z,28.90
2023-05-06T12:14:54.694Z,28.80
2023-05-06T12:17:23.856Z,28.70
2023-05-06T12:19:54.976Z,28.60
2023-05-06T12:22:25.652Z,28.90
2023-05-06T12:24:55.333Z,28.40
2023-05-06T12:27:32.432Z,27.90
2023-05-06T12:30:04.478Z,27.60
2023-05-06T12:32:34.412Z,27.80
2023-05-06T12:35:07.434Z,27.90
2023-05-06T12:37:38.168Z,28.10
2023-05-06T12:40:17.097Z,28.70
2023-05-06T12:42:46.776Z,28.80
2023-05-06T12:45:15.901Z,28.80
2023-05-06T12:47:56.453Z,28.80
2023-05-06T12:50:37.909Z,27.40
2023-05-06T12:53:10.914Z,26.00
2023-05-06T12:55:42.465Z,24.40
2023-05-06T12:58:18.423Z,23.80
2023-05-06T13:00:49.298Z,25.10
2023-05-06T13:03:19.389Z,25.20
2023-05-06T13:05:52.996Z,25.60
2023-05-06T13:08:21.169Z,26.00
2023-05-06T13:10:50.793Z,25.80
2023-05-06T13:13:19.140Z,23.90
2023-05-06T13:15:48.846Z,23.70
2023-05-06T13:18:17.207Z,24.20
2023-05-06T13:20:45.967Z,25.20
2023-05-06T13:23:15.937Z,24.00
2023-05-06T13:26:00.392Z,23.70
2023-05-06T13:28:37.838Z,23.10
2023-05-06T13:31:09.162Z,23.90
2023-05-06T13:33:38.734Z,23.50
2023-05-06T13:36:08.986Z,23.60
2023-05-06T13:38:39.926Z,25.30
2023-05-06T13:41:08.931Z,24.80
2023-05-06T13:43:37.596Z,24.70
2023-05-06T13:48:36.100Z,24.40
2023-05-06T13:51:04.694Z,24.70
2023-05-06T13:53:32.926Z,24.10
2023-05-06T13:56:02.540Z,24.70
2023-05-06T13:58:32.382Z,24.00
2023-05-06T14:01:01.834Z,24.70
2023-05-06T14:03:32.629Z,25.00
2023-05-06T14:06:03.525Z,23.70
2023-05-06T14:08:32.762Z,24.20
2023-05-06T14:11:05.017Z,24.20
2023-05-06T14:13:35.277Z,24.30
2023-05-06T14:16:04.895Z,24.10
2023-05-06T14:18:34.875Z,24.00
2023-05-06T14:21:03.612Z,23.40
2023-05-06T14:23:32.495Z,24.00
2023-05-06T14:26:04.852Z,24.40
2023-05-06T14:28:32.983Z,25.70
2023-05-06T14:31:02.394Z,24.40
2023-05-06T14:33:31.765Z,26.30
2023-05-06T14:36:04.433Z,25.10
2023-05-06T14:38:34.229Z,24.70
2023-05-06T14:41:05.142Z,24.60
2023-05-06T14:43:33.393Z,26.20
2023-05-06T14:46:03.172Z,25.90
2023-05-06T14:48:33.990Z,24.60
2023-05-06T14:51:02.404Z,25.20
2023-05-06T14:53:31.885Z,25.10
2023-05-06T14:56:04.526Z,25.10
2023-05-06T14:58:37.264Z,25.40
2023-05-06T15:01:05.955Z,26.70
2023-05-06T15:03:36.324Z,25.20
2023-05-06T15:06:05.468Z,24.80
2023-05-06T15:08:37.402Z,25.90
2023-05-06T15:11:06.028Z,27.00
2023-05-06T15:13:35.591Z,25.90
2023-05-06T15:16:05.065Z,26.70
2023-05-06T15:18:33.218Z,24.60
2023-05-06T15:21:02.705Z,24.30
2023-05-06T15:23:32.048Z,24.50
2023-05-06T15:26:01.652Z,24.50
2023-05-06T15:28:30.213Z,25.10
2023-05-06T15:30:59.963Z,25.10
2023-05-06T15:33:29.499Z,24.80
2023-05-06T15:36:00.231Z,25.50
2023-05-06T15:38:28.653Z,24.50
2023-05-06T15:40:56.906Z,24.80
2023-05-06T15:43:36.054Z,23.50
2023-05-06T15:46:09.598Z,23.60
2023-05-06T15:48:39.052Z,24.80
2023-05-06T15:51:08.620Z,23.30
2023-05-06T15:53:40.575Z,22.90
2023-05-06T15:56:18.212Z,23.60
2023-05-06T15:58:48.528Z,22.50
2023-05-06T16:01:25.371Z,23.10
2023-05-06T16:04:08.091Z,22.20
2023-05-06T16:06:37.837Z,22.20
2023-05-06T16:09:07.485Z,20.60
2023-05-06T16:14:05.719Z,20.60
2023-05-06T16:16:38.071Z,20.40
2023-05-06T16:19:08.472Z,21.10
2023-05-06T16:21:39.104Z,20.10
2023-05-06T16:24:08.962Z,20.50
2023-05-06T16:26:39.111Z,20.20
2023-05-06T16:29:07.745Z,22.90
2023-05-06T16:31:39.024Z,19.80
2023-05-06T16:34:08.550Z,21.80
2023-05-06T16:36:39.171Z,19.40
2023-05-06T16:39:08.090Z,22.10
2023-05-06T16:41:38.780Z,19.90
2023-05-06T16:44:08.121Z,22.40
2023-05-06T16:46:39.285Z,21.60
2023-05-06T16:49:07.543Z,23.10
2023-05-06T16:51:36.202Z,20.30
2023-05-06T16:54:07.234Z,20.50
2023-05-06T16:56:50.874Z,20.20
2023-05-06T17:01:54.884Z,19.70
2023-05-06T17:04:27.153Z,20.30
2023-05-06T17:06:55.963Z,19.00
2023-05-06T17:09:25.468Z,18.80
2023-05-06T17:11:53.680Z,19.30
2023-05-06T17:14:23.631Z,18.60
2023-05-06T17:16:54.464Z,19.60
2023-05-06T17:19:25.219Z,18.50
2023-05-06T17:21:54.693Z,18.30
2023-05-06T17:24:25.283Z,18.80
2023-05-06T17:26:53.685Z,19.90
2023-05-06T17:29:23.359Z,19.90
2023-05-06T17:36:55.969Z,17.40
2023-05-06T17:39:26.521Z,19.10
2023-05-06T17:41:55.839Z,19.00
2023-05-06T17:44:25.312Z,18.60
2023-05-06T17:46:56.180Z,19.10
2023-05-06T17:49:24.427Z,18.50
2023-05-06T17:51:52.676Z,17.80
2023-05-06T17:59:26.253Z,16.30
2023-05-06T18:01:59.318Z,18.50
2023-05-06T18:04:28.947Z,16.90
2023-05-06T18:06:58.335Z,17.40
2023-05-06T18:09:27.774Z,17.80
2023-05-06T18:11:55.996Z,17.20
2023-05-06T18:14:25.418Z,18.30
2023-05-06T18:19:26.327Z,17.30
2023-05-06T18:26:54.390Z,17.20
2023-05-06T18:29:24.974Z,15.60
2023-05-06T18:31:56.082Z,16.50
2023-05-06T18:34:27.050Z,17.60
2023-05-06T18:36:59.083Z,17.60
2023-05-06T18:39:28.395Z,15.50
2023-05-06T18:41:58.918Z,15.60
2023-05-06T18:44:28.577Z,15.10
2023-05-06T18:46:56.935Z,15.70
2023-05-06T18:49:27.433Z,16.00
2023-05-06T18:51:58.520Z,15.00
2023-05-06T18:54:28.181Z,15.00
2023-05-06T18:56:58.690Z,17.40
2023-05-06T18:59:27.571Z,16.00
2023-05-06T19:01:58.092Z,14.70
2023-05-06T19:04:29.025Z,16.50
2023-05-06T19:06:57.293Z,17.40
2023-05-06T19:09:27.877Z,17.40
2023-05-06T19:11:57.228Z,16.60
2023-05-06T19:14:27.994Z,17.40
2023-05-06T19:19:29.174Z,17.20
2023-05-06T19:21:59.118Z,15.10
2023-05-06T19:24:29.025Z,15.80
2023-05-06T19:26:57.312Z,14.80
2023-05-06T19:29:27.069Z,14.60
2023-05-06T19:31:55.577Z,15.60
2023-05-06T19:34:25.083Z,14.60
2023-05-06T19:36:57.323Z,15.40
2023-05-06T19:39:27.929Z,16.80
2023-05-06T19:41:57.790Z,16.80
2023-05-06T19:44:28.375Z,15.80
2023-05-06T19:46:57.777Z,15.50
2023-05-06T19:49:27.372Z,14.70
2023-05-06T19:51:59.419Z,14.90
2023-05-06T19:54:28.016Z,14.60
2023-05-06T19:56:57.485Z,14.50
2023-05-06T19:59:26.988Z,14.50
2023-05-06T20:04:31.410Z,14.70
2023-05-06T20:07:02.198Z,15.40
2023-05-06T20:09:30.573Z,14.40
2023-05-06T20:11:58.650Z,15.20
2023-05-06T20:14:27.128Z,13.60
2023-05-06T20:16:57.698Z,13.80
2023-05-06T20:19:29.470Z,13.60
2023-05-06T20:22:00.704Z,15.20
2023-05-06T20:24:32.058Z,13.90
2023-05-06T20:32:02.923Z,13.50
2023-05-06T20:34:32.620Z,13.50
2023-05-06T20:37:02.368Z,14.80
2023-05-06T20:39:31.660Z,13.90
2023-05-06T20:41:59.950Z,14.40
2023-05-06T20:44:29.561Z,13.70
2023-05-06T20:46:57.616Z,16.10
2023-05-06T20:49:25.818Z,13.30
2023-05-06T20:51:54.021Z,14.50
2023-05-06T20:54:23.695Z,14.40
2023-05-06T20:56:53.185Z,14.70
2023-05-06T20:59:23.000Z,14.50
2023-05-06T21:01:53.965Z,13.60
2023-05-06T21:04:23.614Z,15.50
2023-05-06T21:06:54.188Z,13.60
2023-05-06T21:09:23.696Z,15.60
2023-05-06T21:11:53.016Z,13.80
2023-05-06T21:14:21.171Z,13.40
2023-05-06T21:16:50.548Z,15.30
2023-05-06T21:19:20.620Z,15.00
2023-05-06T21:21:48.757Z,12.80
2023-05-06T21:26:49.109Z,13.90
2023-05-06T21:29:18.369Z,14.80
2023-05-06T21:31:46.511Z,13.00
2023-05-06T21:34:14.747Z,14.90
2023-05-06T21:36:42.837Z,15.10
2023-05-06T21:39:15.930Z,15.40
2023-05-06T21:41:45.491Z,14.20
2023-05-06T21:44:15.972Z,13.80
2023-05-06T21:46:45.478Z,14.00
2023-05-06T21:49:16.046Z,13.90
2023-05-06T21:51:44.202Z,12.70
2023-05-06T21:54:14.716Z,15.40
2023-05-06T21:56:42.778Z,13.60
2023-05-06T21:59:12.335Z,14.10
2023-05-06T22:01:44.373Z,13.80
2023-05-06T22:04:14.912Z,13.00
2023-05-06T22:06:44.314Z,13.20
2023-05-06T22:09:13.649Z,15.30
2023-05-06T22:11:41.909Z,12.40
2023-05-06T22:14:11.185Z,14.80
2023-05-06T22:16:44.027Z,12.60
2023-05-06T22:19:13.036Z,14.80
2023-05-06T22:21:42.594Z,13.60
2023-05-06T22:24:10.772Z,12.90
2023-05-06T22:26:40.230Z,13.10
2023-05-06T22:29:09.524Z,14.80
2023-05-06T22:31:38.987Z,13.00
2023-05-06T22:34:08.679Z,13.90
2023-05-06T22:39:10.332Z,14.70
2023-05-06T22:41:41.460Z,15.30
2023-05-06T22:44:09.632Z,12.60
2023-05-06T22:46:38.932Z,12.80
2023-05-06T22:49:09.690Z,13.20
2023-05-06T22:51:39.257Z,15.20
2023-05-06T22:54:07.238Z,14.00
2023-05-06T22:56:35.700Z,14.50
2023-05-06T23:01:34.906Z,13.20
2023-05-06T23:04:05.698Z,14.30
2023-05-06T23:06:36.647Z,14.30
2023-05-06T23:09:06.661Z,14.10
2023-05-06T23:11:37.198Z,15.40
2023-05-06T23:14:07.477Z,12.50
2023-05-06T23:16:37.057Z,15.40
2023-05-06T23:19:06.652Z,15.30
2023-05-06T23:21:37.209Z,14.50
2023-05-06T23:24:07.124Z,14.70
2023-05-06T23:26:37.821Z,13.10
2023-05-06T23:29:07.424Z,14.20
2023-05-06T23:31:36.570Z,13.70
2023-05-06T23:34:04.876Z,14.50
2023-05-06T23:36:37.929Z,13.10
2023-05-06T23:39:06.055Z,13.10
2023-05-06T23:41:36.628Z,12.10
2023-05-06T23:44:05.260Z,14.40
2023-05-06T23:49:05.873Z,12.40
2023-05-06T23:51:34.034Z,12.10
2023-05-06T23:54:04.837Z,13.10
2023-05-06T23:56:33.133Z,12.60
